sensor_id;sensor_type;location;lat;lon;timestamp;P1;durP1;ratioP1;P2;durP2;ratioP2
47617;SDS011;33336;36.728;-4.414;2022-12-18T00:03:31;7.78;;;3.20;;
47617;SDS011;33336;36.728;-4.414;2022-12-18T00:08:35;5.47;;;2.45;;
47617;SDS011;33336;36.728;-4.414;2022-12-18T00:13:39;5.68;;;2.03;;
47617;SDS011;33336;36.728;-4.414;2022-12-18T00:18:42;5.40;;;2.10;;
47617;SDS011;33336;36.728;-4.414;2022-12-18T00:23:46;3.95;;;1.90;;
47617;SDS011;33336;36.728;-4.414;2022-12-18T00:28:51;5.80;;;2.10;;
47617;SDS011;33336;36.728;-4.414;2022-12-18T00:33:56;3.60;;;2.00;;
47617;SDS011;33336;36.728;-4.414;2022-12-18T00:39:00;5.85;;;2.33;;
47617;SDS011;33336;36.728;-4.414;2022-12-18T00:44:07;7.95;;;2.45;;
47617;SDS011;33336;36.728;-4.414;2022-12-18T00:49:13;5.43;;;1.90;;
47617;SDS011;33336;36.728;-4.414;2022-12-18T00:54:17;4.82;;;1.60;;
47617;SDS011;33336;36.728;-4.414;2022-12-18T00:59:21;2.33;;;1.50;;
47617;SDS011;33336;36.728;-4.414;2022-12-18T01:04:25;4.35;;;1.48;;
47617;SDS011;33336;36.728;-4.414;2022-12-18T01:09:28;2.08;;;1.00;;
47617;SDS011;33336;36.728;-4.414;2022-12-18T01:14:32;4.22;;;1.40;;
47617;SDS011;33336;36.728;-4.414;2022-12-18T01:19:35;2.30;;;0.88;;
47617;SDS011;33336;36.728;-4.414;2022-12-18T01:24:39;3.65;;;1.30;;
47617;SDS011;33336;36.728;-4.414;2022-12-18T01:29:43;2.72;;;1.13;;
47617;SDS011;33336;36.728;-4.414;2022-12-18T01:34:46;3.60;;;1.00;;
47617;SDS011;33336;36.728;-4.414;2022-12-18T01:39:49;5.45;;;1.00;;
47617;SDS011;33336;36.728;-4.414;2022-12-18T01:45:00;3.53;;;0.80;;
47617;SDS011;33336;36.728;-4.414;2022-12-18T01:50:07;3.85;;;1.08;;
47617;SDS011;33336;36.728;-4.414;2022-12-18T01:55:14;1.90;;;1.00;;
47617;SDS011;33336;36.728;-4.414;2022-12-18T02:00:21;1.63;;;0.90;;
47617;SDS011;33336;36.728;-4.414;2022-12-18T02:05:29;2.65;;;1.20;;
47617;SDS011;33336;36.728;-4.414;2022-12-18T02:10:42;3.00;;;0.90;;
47617;SDS011;33336;36.728;-4.414;2022-12-18T02:15:54;4.22;;;1.20;;
47617;SDS011;33336;36.728;-4.414;2022-12-18T02:21:04;2.10;;;0.82;;
47617;SDS011;33336;36.728;-4.414;2022-12-18T02:26:17;7.20;;;0.80;;
47617;SDS011;33336;36.728;-4.414;2022-12-18T02:31:23;2.17;;;0.90;;
47617;SDS011;33336;36.728;-4.414;2022-12-18T02:36:31;1.58;;;0.82;;
47617;SDS011;33336;36.728;-4.414;2022-12-18T02:41:38;1.73;;;0.82;;
47617;SDS011;33336;36.728;-4.414;2022-12-18T02:46:42;1.42;;;0.88;;
47617;SDS011;33336;36.728;-4.414;2022-12-18T02:51:48;1.35;;;0.65;;
47617;SDS011;33336;36.728;-4.414;2022-12-18T02:56:57;4.78;;;0.90;;
47617;SDS011;33336;36.728;-4.414;2022-12-18T03:02:07;3.80;;;0.60;;
47617;SDS011;33336;36.728;-4.414;2022-12-18T03:07:26;2.25;;;0.82;;
47617;SDS011;33336;36.728;-4.414;2022-12-18T03:12:37;3.55;;;0.90;;
47617;SDS011;33336;36.728;-4.414;2022-12-18T03:17:48;2.47;;;0.80;;
47617;SDS011;33336;36.728;-4.414;2022-12-18T03:22:57;1.52;;;0.70;;
47617;SDS011;33336;36.728;-4.414;2022-12-18T03:28:14;2.90;;;1.00;;
47617;SDS011;33336;36.728;-4.414;2022-12-18T03:33:22;1.90;;;0.90;;
47617;SDS011;33336;36.728;-4.414;2022-12-18T03:38:30;1.42;;;1.05;;
47617;SDS011;33336;36.728;-4.414;2022-12-18T03:43:37;5.90;;;1.30;;
47617;SDS011;33336;36.728;-4.414;2022-12-18T03:48:55;3.45;;;1.40;;
47617;SDS011;33336;36.728;-4.414;2022-12-18T03:54:02;2.03;;;1.00;;
47617;SDS011;33336;36.728;-4.414;2022-12-18T03:59:11;2.27;;;1.10;;
47617;SDS011;33336;36.728;-4.414;2022-12-18T04:04:16;2.25;;;1.05;;
47617;SDS011;33336;36.728;-4.414;2022-12-18T04:09:21;2.00;;;1.23;;
47617;SDS011;33336;36.728;-4.414;2022-12-18T04:14:26;2.75;;;1.02;;
47617;SDS011;33336;36.728;-4.414;2022-12-18T04:19:29;1.63;;;1.00;;
47617;SDS011;33336;36.728;-4.414;2022-12-18T04:24:32;3.72;;;1.20;;
47617;SDS011;33336;36.728;-4.414;2022-12-18T04:29:36;2.70;;;0.80;;
47617;SDS011;33336;36.728;-4.414;2022-12-18T04:34:39;1.73;;;0.73;;
47617;SDS011;33336;36.728;-4.414;2022-12-18T04:39:43;2.65;;;0.75;;
47617;SDS011;33336;36.728;-4.414;2022-12-18T04:44:47;4.30;;;1.73;;
47617;SDS011;33336;36.728;-4.414;2022-12-18T04:49:50;4.10;;;1.67;;
47617;SDS011;33336;36.728;-4.414;2022-12-18T04:54:53;2.90;;;0.90;;
47617;SDS011;33336;36.728;-4.414;2022-12-18T04:59:57;2.63;;;0.80;;
47617;SDS011;33336;36.728;-4.414;2022-12-18T05:05:00;2.92;;;1.35;;
47617;SDS011;33336;36.728;-4.414;2022-12-18T05:10:06;2.30;;;0.90;;
47617;SDS011;33336;36.728;-4.414;2022-12-18T05:15:11;2.70;;;0.85;;
47617;SDS011;33336;36.728;-4.414;2022-12-18T05:20:15;2.55;;;1.02;;
47617;SDS011;33336;36.728;-4.414;2022-12-18T05:25:19;1.58;;;0.80;;
47617;SDS011;33336;36.728;-4.414;2022-12-18T05:30:24;1.95;;;0.90;;
47617;SDS011;33336;36.728;-4.414;2022-12-18T05:35:28;1.33;;;0.60;;
47617;SDS011;33336;36.728;-4.414;2022-12-18T05:40:31;1.25;;;0.68;;
47617;SDS011;33336;36.728;-4.414;2022-12-18T05:45:37;1.60;;;0.70;;
47617;SDS011;33336;36.728;-4.414;2022-12-18T05:50:41;2.67;;;0.70;;
47617;SDS011;33336;36.728;-4.414;2022-12-18T05:55:46;1.23;;;0.60;;
47617;SDS011;33336;36.728;-4.414;2022-12-18T06:00:51;1.95;;;0.80;;
47617;SDS011;33336;36.728;-4.414;2022-12-18T06:05:54;2.67;;;0.98;;
47617;SDS011;33336;36.728;-4.414;2022-12-18T06:10:58;4.55;;;0.80;;
47617;SDS011;33336;36.728;-4.414;2022-12-18T06:16:03;1.10;;;0.70;;
47617;SDS011;33336;36.728;-4.414;2022-12-18T06:21:06;3.83;;;1.20;;
47617;SDS011;33336;36.728;-4.414;2022-12-18T06:26:09;2.03;;;1.10;;
47617;SDS011;33336;36.728;-4.414;2022-12-18T06:31:15;1.38;;;0.65;;
47617;SDS011;33336;36.728;-4.414;2022-12-18T06:36:18;2.35;;;0.55;;
47617;SDS011;33336;36.728;-4.414;2022-12-18T06:41:22;1.80;;;0.70;;
47617;SDS011;33336;36.728;-4.414;2022-12-18T06:46:26;2.53;;;0.75;;
47617;SDS011;33336;36.728;-4.414;2022-12-18T06:51:30;1.20;;;0.52;;
47617;SDS011;33336;36.728;-4.414;2022-12-18T06:56:33;3.60;;;0.73;;
47617;SDS011;33336;36.728;-4.414;2022-12-18T07:01:38;1.42;;;1.15;;
47617;SDS011;33336;36.728;-4.414;2022-12-18T07:06:41;2.10;;;0.68;;
47617;SDS011;33336;36.728;-4.414;2022-12-18T07:11:45;2.33;;;0.60;;
47617;SDS011;33336;36.728;-4.414;2022-12-18T07:16:49;1.58;;;0.93;;
47617;SDS011;33336;36.728;-4.414;2022-12-18T07:21:53;3.67;;;1.00;;
47617;SDS011;33336;36.728;-4.414;2022-12-18T07:26:55;1.92;;;1.08;;
47617;SDS011;33336;36.728;-4.414;2022-12-18T07:32:00;2.63;;;0.90;;
47617;SDS011;33336;36.728;-4.414;2022-12-18T07:37:03;1.02;;;0.70;;
47617;SDS011;33336;36.728;-4.414;2022-12-18T07:42:07;15.45;;;1.58;;
47617;SDS011;33336;36.728;-4.414;2022-12-18T07:47:28;1.30;;;1.20;;
47617;SDS011;33336;36.728;-4.414;2022-12-18T07:52:35;0.97;;;0.77;;
47617;SDS011;33336;36.728;-4.414;2022-12-18T07:57:38;3.60;;;0.98;;
47617;SDS011;33336;36.728;-4.414;2022-12-18T08:02:43;6.03;;;1.33;;
47617;SDS011;33336;36.728;-4.414;2022-12-18T08:07:46;3.15;;;1.45;;
47617;SDS011;33336;36.728;-4.414;2022-12-18T08:12:50;1.92;;;1.00;;
47617;SDS011;33336;36.728;-4.414;2022-12-18T08:17:57;4.20;;;1.50;;
47617;SDS011;33336;36.728;-4.414;2022-12-18T08:23:01;4.68;;;1.10;;
47617;SDS011;33336;36.728;-4.414;2022-12-18T08:28:03;4.55;;;1.42;;
47617;SDS011;33336;36.728;-4.414;2022-12-18T08:33:08;4.72;;;0.98;;
47617;SDS011;33336;36.728;-4.414;2022-12-18T08:38:11;2.97;;;1.38;;
47617;SDS011;33336;36.728;-4.414;2022-12-18T08:43:15;3.50;;;1.70;;
47617;SDS011;33336;36.728;-4.414;2022-12-18T08:48:36;2.88;;;1.70;;
47617;SDS011;33336;36.728;-4.414;2022-12-18T08:53:40;4.47;;;2.03;;
47617;SDS011;33336;36.728;-4.414;2022-12-18T08:58:43;6.93;;;2.80;;
47617;SDS011;33336;36.728;-4.414;2022-12-18T09:03:55;5.93;;;2.42;;
47617;SDS011;33336;36.728;-4.414;2022-12-18T09:08:58;4.72;;;2.58;;
47617;SDS011;33336;36.728;-4.414;2022-12-18T09:14:02;6.50;;;3.13;;
47617;SDS011;33336;36.728;-4.414;2022-12-18T09:19:06;8.10;;;3.35;;
47617;SDS011;33336;36.728;-4.414;2022-12-18T09:24:11;5.63;;;3.15;;
47617;SDS011;33336;36.728;-4.414;2022-12-18T09:29:15;7.38;;;3.20;;
47617;SDS011;33336;36.728;-4.414;2022-12-18T09:34:19;6.03;;;2.65;;
47617;SDS011;33336;36.728;-4.414;2022-12-18T09:39:22;7.32;;;3.22;;
47617;SDS011;33336;36.728;-4.414;2022-12-18T09:44:26;8.73;;;3.45;;
47617;SDS011;33336;36.728;-4.414;2022-12-18T09:49:34;7.10;;;4.18;;
47617;SDS011;33336;36.728;-4.414;2022-12-18T09:54:44;5.25;;;3.45;;
47617;SDS011;33336;36.728;-4.414;2022-12-18T09:59:53;9.57;;;4.47;;
47617;SDS011;33336;36.728;-4.414;2022-12-18T10:05:10;10.32;;;4.63;;
47617;SDS011;33336;36.728;-4.414;2022-12-18T10:10:19;9.32;;;3.95;;
47617;SDS011;33336;36.728;-4.414;2022-12-18T10:15:33;12.60;;;4.43;;
47617;SDS011;33336;36.728;-4.414;2022-12-18T10:20:46;13.55;;;5.47;;
47617;SDS011;33336;36.728;-4.414;2022-12-18T10:25:53;5.57;;;2.33;;
47617;SDS011;33336;36.728;-4.414;2022-12-18T10:31:03;2.95;;;1.73;;
47617;SDS011;33336;36.728;-4.414;2022-12-18T10:36:09;3.95;;;1.60;;
47617;SDS011;33336;36.728;-4.414;2022-12-18T10:41:23;8.85;;;2.83;;
47617;SDS011;33336;36.728;-4.414;2022-12-18T10:46:28;5.38;;;2.42;;
47617;SDS011;33336;36.728;-4.414;2022-12-18T10:51:33;4.68;;;1.70;;
47617;SDS011;33336;36.728;-4.414;2022-12-18T10:56:39;6.65;;;1.85;;
47617;SDS011;33336;36.728;-4.414;2022-12-18T11:01:46;4.25;;;1.88;;
47617;SDS011;33336;36.728;-4.414;2022-12-18T11:06:56;3.88;;;1.70;;
47617;SDS011;33336;36.728;-4.414;2022-12-18T11:12:01;5.90;;;1.65;;
47617;SDS011;33336;36.728;-4.414;2022-12-18T11:17:16;4.90;;;1.65;;
47617;SDS011;33336;36.728;-4.414;2022-12-18T11:22:23;4.50;;;1.80;;
47617;SDS011;33336;36.728;-4.414;2022-12-18T11:27:29;4.63;;;1.77;;
47617;SDS011;33336;36.728;-4.414;2022-12-18T11:32:33;5.07;;;1.40;;
47617;SDS011;33336;36.728;-4.414;2022-12-18T11:37:40;6.75;;;1.75;;
47617;SDS011;33336;36.728;-4.414;2022-12-18T11:42:49;3.92;;;1.40;;
47617;SDS011;33336;36.728;-4.414;2022-12-18T11:47:57;4.82;;;1.88;;
47617;SDS011;33336;36.728;-4.414;2022-12-18T11:53:07;6.97;;;2.00;;
47617;SDS011;33336;36.728;-4.414;2022-12-18T11:58:16;5.43;;;1.42;;
47617;SDS011;33336;36.728;-4.414;2022-12-18T12:03:39;7.68;;;1.90;;
47617;SDS011;33336;36.728;-4.414;2022-12-18T12:08:58;3.75;;;1.40;;
47617;SDS011;33336;36.728;-4.414;2022-12-18T12:14:12;2.97;;;2.00;;
47617;SDS011;33336;36.728;-4.414;2022-12-18T12:19:29;5.07;;;1.92;;
47617;SDS011;33336;36.728;-4.414;2022-12-18T12:24:51;8.07;;;1.92;;
47617;SDS011;33336;36.728;-4.414;2022-12-18T12:30:03;3.35;;;1.65;;
47617;SDS011;33336;36.728;-4.414;2022-12-18T12:35:12;4.55;;;2.17;;
47617;SDS011;33336;36.728;-4.414;2022-12-18T12:40:30;5.35;;;1.77;;
47617;SDS011;33336;36.728;-4.414;2022-12-18T12:45:37;3.55;;;1.70;;
47617;SDS011;33336;36.728;-4.414;2022-12-18T12:50:44;9.15;;;2.38;;
47617;SDS011;33336;36.728;-4.414;2022-12-18T12:55:49;5.40;;;1.83;;
47617;SDS011;33336;36.728;-4.414;2022-12-18T13:00:54;3.85;;;1.50;;
47617;SDS011;33336;36.728;-4.414;2022-12-18T13:06:04;4.15;;;1.50;;
47617;SDS011;33336;36.728;-4.414;2022-12-18T13:11:16;4.45;;;1.90;;
47617;SDS011;33336;36.728;-4.414;2022-12-18T13:16:50;5.77;;;1.40;;
47617;SDS011;33336;36.728;-4.414;2022-12-18T13:21:54;5.97;;;2.03;;
47617;SDS011;33336;36.728;-4.414;2022-12-18T13:26:59;4.22;;;2.05;;
47617;SDS011;33336;36.728;-4.414;2022-12-18T13:32:03;6.50;;;2.25;;
47617;SDS011;33336;36.728;-4.414;2022-12-18T13:37:40;6.97;;;1.92;;
47617;SDS011;33336;36.728;-4.414;2022-12-18T13:42:46;5.60;;;1.45;;
47617;SDS011;33336;36.728;-4.414;2022-12-18T13:48:11;5.75;;;1.30;;
47617;SDS011;33336;36.728;-4.414;2022-12-18T13:53:20;8.98;;;2.38;;
47617;SDS011;33336;36.728;-4.414;2022-12-18T13:58:27;6.72;;;2.00;;
47617;SDS011;33336;36.728;-4.414;2022-12-18T14:03:30;6.60;;;1.80;;
47617;SDS011;33336;36.728;-4.414;2022-12-18T14:08:36;5.30;;;1.92;;
47617;SDS011;33336;36.728;-4.414;2022-12-18T14:13:42;7.63;;;1.58;;
47617;SDS011;33336;36.728;-4.414;2022-12-18T14:18:46;7.53;;;1.92;;
47617;SDS011;33336;36.728;-4.414;2022-12-18T14:24:06;6.38;;;2.00;;
47617;SDS011;33336;36.728;-4.414;2022-12-18T14:29:24;5.10;;;1.80;;
47617;SDS011;33336;36.728;-4.414;2022-12-18T14:34:28;4.85;;;1.60;;
47617;SDS011;33336;36.728;-4.414;2022-12-18T14:39:31;9.02;;;3.20;;
47617;SDS011;33336;36.728;-4.414;2022-12-18T14:44:36;10.00;;;3.55;;
47617;SDS011;33336;36.728;-4.414;2022-12-18T14:49:39;7.93;;;2.33;;
47617;SDS011;33336;36.728;-4.414;2022-12-18T14:54:45;6.67;;;2.17;;
47617;SDS011;33336;36.728;-4.414;2022-12-18T14:59:51;10.00;;;2.53;;
47617;SDS011;33336;36.728;-4.414;2022-12-18T15:04:59;8.05;;;2.90;;
47617;SDS011;33336;36.728;-4.414;2022-12-18T15:10:04;6.65;;;2.50;;
47617;SDS011;33336;36.728;-4.414;2022-12-18T15:20:49;8.88;;;2.45;;
47617;SDS011;33336;36.728;-4.414;2022-12-18T15:25:55;6.05;;;2.03;;
47617;SDS011;33336;36.728;-4.414;2022-12-18T15:31:02;6.45;;;2.35;;
47617;SDS011;33336;36.728;-4.414;2022-12-18T15:36:09;7.18;;;2.47;;
47617;SDS011;33336;36.728;-4.414;2022-12-18T15:41:12;6.65;;;2.40;;
47617;SDS011;33336;36.728;-4.414;2022-12-18T15:46:20;8.65;;;2.28;;
47617;SDS011;33336;36.728;-4.414;2022-12-18T15:51:26;8.68;;;1.92;;
47617;SDS011;33336;36.728;-4.414;2022-12-18T15:56:31;6.15;;;2.45;;
47617;SDS011;33336;36.728;-4.414;2022-12-18T16:01:52;7.13;;;1.90;;
47617;SDS011;33336;36.728;-4.414;2022-12-18T16:06:55;7.68;;;2.15;;
47617;SDS011;33336;36.728;-4.414;2022-12-18T16:11:58;9.20;;;1.98;;
47617;SDS011;33336;36.728;-4.414;2022-12-18T16:17:05;5.95;;;2.20;;
47617;SDS011;33336;36.728;-4.414;2022-12-18T16:22:17;3.55;;;1.55;;
47617;SDS011;33336;36.728;-4.414;2022-12-18T16:27:23;6.70;;;1.75;;
47617;SDS011;33336;36.728;-4.414;2022-12-18T16:32:28;3.72;;;1.50;;
47617;SDS011;33336;36.728;-4.414;2022-12-18T16:37:31;9.43;;;2.60;;
47617;SDS011;33336;36.728;-4.414;2022-12-18T16:42:34;11.07;;;2.70;;
47617;SDS011;33336;36.728;-4.414;2022-12-18T16:47:40;6.18;;;2.00;;
47617;SDS011;33336;36.728;-4.414;2022-12-18T16:52:43;6.72;;;2.00;;
47617;SDS011;33336;36.728;-4.414;2022-12-18T16:57:47;11.63;;;2.85;;
47617;SDS011;33336;36.728;-4.414;2022-12-18T17:02:53;6.22;;;2.13;;
47617;SDS011;33336;36.728;-4.414;2022-12-18T17:07:56;6.82;;;2.65;;
47617;SDS011;33336;36.728;-4.414;2022-12-18T17:12:59;9.13;;;2.40;;
47617;SDS011;33336;36.728;-4.414;2022-12-18T17:18:04;9.10;;;2.80;;
47617;SDS011;33336;36.728;-4.414;2022-12-18T17:23:07;8.70;;;3.47;;
47617;SDS011;33336;36.728;-4.414;2022-12-18T17:28:10;7.43;;;3.00;;
47617;SDS011;33336;36.728;-4.414;2022-12-18T17:33:15;6.90;;;2.50;;
47617;SDS011;33336;36.728;-4.414;2022-12-18T17:38:18;5.50;;;2.25;;
47617;SDS011;33336;36.728;-4.414;2022-12-18T17:43:21;7.05;;;2.35;;
47617;SDS011;33336;36.728;-4.414;2022-12-18T17:48:26;7.88;;;3.28;;
47617;SDS011;33336;36.728;-4.414;2022-12-18T17:53:29;8.88;;;2.20;;
47617;SDS011;33336;36.728;-4.414;2022-12-18T17:58:33;7.45;;;2.38;;
47617;SDS011;33336;36.728;-4.414;2022-12-18T18:03:39;7.32;;;2.60;;
47617;SDS011;33336;36.728;-4.414;2022-12-18T18:08:42;10.02;;;2.83;;
47617;SDS011;33336;36.728;-4.414;2022-12-18T18:13:45;7.63;;;2.50;;
47617;SDS011;33336;36.728;-4.414;2022-12-18T18:19:07;6.68;;;3.30;;
47617;SDS011;33336;36.728;-4.414;2022-12-18T18:24:12;10.50;;;4.00;;
47617;SDS011;33336;36.728;-4.414;2022-12-18T18:29:17;8.48;;;3.67;;
47617;SDS011;33336;36.728;-4.414;2022-12-18T18:34:25;10.48;;;3.78;;
47617;SDS011;33336;36.728;-4.414;2022-12-18T18:39:28;10.10;;;2.78;;
47617;SDS011;33336;36.728;-4.414;2022-12-18T18:44:31;8.02;;;3.63;;
47617;SDS011;33336;36.728;-4.414;2022-12-18T18:49:36;12.32;;;4.10;;
47617;SDS011;33336;36.728;-4.414;2022-12-18T18:54:39;8.02;;;4.00;;
47617;SDS011;33336;36.728;-4.414;2022-12-18T18:59:42;14.60;;;3.42;;
47617;SDS011;33336;36.728;-4.414;2022-12-18T19:04:48;8.52;;;2.97;;
47617;SDS011;33336;36.728;-4.414;2022-12-18T19:09:51;14.65;;;4.60;;
47617;SDS011;33336;36.728;-4.414;2022-12-18T19:14:54;10.60;;;4.40;;
47617;SDS011;33336;36.728;-4.414;2022-12-18T19:19:59;15.00;;;5.78;;
47617;SDS011;33336;36.728;-4.414;2022-12-18T19:25:01;14.27;;;5.40;;
47617;SDS011;33336;36.728;-4.414;2022-12-18T19:30:06;17.95;;;5.63;;
47617;SDS011;33336;36.728;-4.414;2022-12-18T19:35:11;16.10;;;7.07;;
47617;SDS011;33336;36.728;-4.414;2022-12-18T19:40:14;15.38;;;6.43;;
47617;SDS011;33336;36.728;-4.414;2022-12-18T19:45:17;16.75;;;6.38;;
47617;SDS011;33336;36.728;-4.414;2022-12-18T19:50:23;11.25;;;6.15;;
47617;SDS011;33336;36.728;-4.414;2022-12-18T19:55:26;11.35;;;5.50;;
47617;SDS011;33336;36.728;-4.414;2022-12-18T20:00:29;13.63;;;5.63;;
47617;SDS011;33336;36.728;-4.414;2022-12-18T20:05:33;15.43;;;6.25;;
47617;SDS011;33336;36.728;-4.414;2022-12-18T20:10:36;12.35;;;5.70;;
47617;SDS011;33336;36.728;-4.414;2022-12-18T20:15:39;12.75;;;7.03;;
47617;SDS011;33336;36.728;-4.414;2022-12-18T20:20:44;11.02;;;5.55;;
47617;SDS011;33336;36.728;-4.414;2022-12-18T20:25:47;14.35;;;7.20;;
47617;SDS011;33336;36.728;-4.414;2022-12-18T20:30:53;15.82;;;5.10;;
47617;SDS011;33336;36.728;-4.414;2022-12-18T20:36:01;13.85;;;5.50;;
47617;SDS011;33336;36.728;-4.414;2022-12-18T20:41:06;19.63;;;5.93;;
47617;SDS011;33336;36.728;-4.414;2022-12-18T20:46:11;19.90;;;5.05;;
47617;SDS011;33336;36.728;-4.414;2022-12-18T20:51:19;14.27;;;4.75;;
47617;SDS011;33336;36.728;-4.414;2022-12-18T20:56:22;14.48;;;4.68;;
47617;SDS011;33336;36.728;-4.414;2022-12-18T21:01:27;11.63;;;5.53;;
47617;SDS011;33336;36.728;-4.414;2022-12-18T21:06:33;15.73;;;5.68;;
47617;SDS011;33336;36.728;-4.414;2022-12-18T21:11:36;18.95;;;5.78;;
47617;SDS011;33336;36.728;-4.414;2022-12-18T21:16:58;14.50;;;5.20;;
47617;SDS011;33336;36.728;-4.414;2022-12-18T21:22:03;12.40;;;6.05;;
47617;SDS011;33336;36.728;-4.414;2022-12-18T21:27:06;13.02;;;5.20;;
47617;SDS011;33336;36.728;-4.414;2022-12-18T21:32:09;14.55;;;5.57;;
47617;SDS011;33336;36.728;-4.414;2022-12-18T21:37:15;13.77;;;4.82;;
47617;SDS011;33336;36.728;-4.414;2022-12-18T21:42:17;13.90;;;3.42;;
47617;SDS011;33336;36.728;-4.414;2022-12-18T21:47:38;9.65;;;4.00;;
47617;SDS011;33336;36.728;-4.414;2022-12-18T21:52:43;12.32;;;3.28;;
47617;SDS011;33336;36.728;-4.414;2022-12-18T22:03:13;13.85;;;3.78;;
47617;SDS011;33336;36.728;-4.414;2022-12-18T22:08:20;10.60;;;3.70;;
47617;SDS011;33336;36.728;-4.414;2022-12-18T22:13:22;7.82;;;3.05;;
47617;SDS011;33336;36.728;-4.414;2022-12-18T22:18:25;6.32;;;3.22;;
47617;SDS011;33336;36.728;-4.414;2022-12-18T22:23:29;8.27;;;3.47;;
47617;SDS011;33336;36.728;-4.414;2022-12-18T22:28:33;7.72;;;3.08;;
47617;SDS011;33336;36.728;-4.414;2022-12-18T22:33:53;17.40;;;4.53;;
47617;SDS011;33336;36.728;-4.414;2022-12-18T22:38:58;11.05;;;3.97;;
47617;SDS011;33336;36.728;-4.414;2022-12-18T22:44:01;13.90;;;4.00;;
47617;SDS011;33336;36.728;-4.414;2022-12-18T22:49:04;9.77;;;3.50;;
47617;SDS011;33336;36.728;-4.414;2022-12-18T22:54:09;7.15;;;3.10;;
47617;SDS011;33336;36.728;-4.414;2022-12-18T22:59:14;11.18;;;3.95;;
47617;SDS011;33336;36.728;-4.414;2022-12-18T23:04:18;11.00;;;3.80;;
47617;SDS011;33336;36.728;-4.414;2022-12-18T23:09:24;10.82;;;3.35;;
47617;SDS011;33336;36.728;-4.414;2022-12-18T23:14:27;12.35;;;4.53;;
47617;SDS011;33336;36.728;-4.414;2022-12-18T23:19:30;9.63;;;5.35;;
47617;SDS011;33336;36.728;-4.414;2022-12-18T23:24:37;8.88;;;4.65;;
47617;SDS011;33336;36.728;-4.414;2022-12-18T23:29:40;10.73;;;4.80;;
47617;SDS011;33336;36.728;-4.414;2022-12-18T23:34:43;8.30;;;4.38;;
47617;SDS011;33336;36.728;-4.414;2022-12-18T23:39:48;12.98;;;4.55;;
47617;SDS011;33336;36.728;-4.414;2022-12-18T23:44:50;11.23;;;3.75;;
47617;SDS011;33336;36.728;-4.414;2022-12-18T23:49:53;12.13;;;4.10;;
47617;SDS011;33336;36.728;-4.414;2022-12-18T23:54:58;11.95;;;4.35;;
